createdAt,value
2022-12-29T00:01:01.980Z,31.60
2022-12-29T00:03:30.496Z,32.40
2022-12-29T00:05:59.016Z,31.10
2022-12-29T00:08:27.275Z,23.60
2022-12-29T00:10:55.558Z,32.50
2022-12-29T00:13:24.211Z,28.70
2022-12-29T00:15:52.424Z,22.80
2022-12-29T00:18:20.560Z,26.40
2022-12-29T00:20:49.086Z,20.30
2022-12-29T00:23:17.251Z,25.50
2022-12-29T00:25:46.503Z,24.70
2022-12-29T00:28:14.943Z,22.90
2022-12-29T00:30:43.694Z,15.50
2022-12-29T00:33:18.239Z,20.70
2022-12-29T00:35:58.832Z,19.20
2022-12-29T00:38:28.222Z,19.20
2022-12-29T00:40:56.471Z,10.10
2022-12-29T00:43:24.611Z,16.60
2022-12-29T00:45:53.189Z,14.60
2022-12-29T00:48:21.535Z,12.30
2022-12-29T00:50:49.786Z,12.70
2022-12-29T00:53:17.949Z,10.60
2022-12-29T00:55:46.114Z,9.60
2022-12-29T00:58:14.254Z,11.20
2022-12-29T01:00:42.853Z,8.50
2022-12-29T01:03:11.210Z,6.10
2022-12-29T01:05:39.762Z,5.50
2022-12-29T01:08:08.285Z,4.70
2022-12-29T01:10:36.519Z,5.60
2022-12-29T01:13:05.261Z,11.60
2022-12-29T01:15:33.443Z,9.60
2022-12-29T01:18:02.253Z,7.40
2022-12-29T01:20:30.493Z,8.40
2022-12-29T01:22:59.072Z,8.00
2022-12-29T01:25:27.406Z,8.90
2022-12-29T01:27:55.659Z,9.30
2022-12-29T01:30:23.976Z,12.20
2022-12-29T01:32:52.418Z,8.10
2022-12-29T01:35:20.981Z,8.40
2022-12-29T01:37:49.336Z,7.20
2022-12-29T01:40:17.769Z,7.60
2022-12-29T01:42:46.299Z,6.60
2022-12-29T01:45:16.963Z,7.20
2022-12-29T01:47:51.458Z,11.10
2022-12-29T01:50:33.954Z,10.80
2022-12-29T01:53:17.598Z,7.70
2022-12-29T01:55:55.431Z,11.10
2022-12-29T01:58:28.553Z,16.80
2022-12-29T02:00:56.936Z,6.90
2022-12-29T02:03:26.884Z,6.30
2022-12-29T02:06:03.877Z,9.50
2022-12-29T02:08:32.111Z,7.10
2022-12-29T02:11:01.842Z,5.60
2022-12-29T02:13:32.410Z,5.90
2022-12-29T02:16:09.734Z,7.50
2022-12-29T02:18:46.895Z,7.20
2022-12-29T02:21:38.019Z,3.70
2022-12-29T02:24:39.220Z,7.70
2022-12-29T02:27:38.288Z,4.70
2022-12-29T02:30:06.942Z,4.70
2022-12-29T02:32:47.424Z,7.30
2022-12-29T02:35:36.704Z,7.00
2022-12-29T02:38:50.133Z,6.50
2022-12-29T02:41:43.267Z,7.20
2022-12-29T02:44:43.508Z,7.20
2022-12-29T02:47:46.050Z,7.40
2022-12-29T02:50:26.258Z,3.50
2022-12-29T02:53:01.407Z,2.80
2022-12-29T02:55:29.606Z,6.40
2022-12-29T02:58:10.302Z,7.00
2022-12-29T03:00:47.191Z,5.00
2022-12-29T03:03:52.779Z,7.20
2022-12-29T03:06:57.485Z,6.50
2022-12-29T03:09:42.460Z,6.70
2022-12-29T03:12:37.300Z,6.50
2022-12-29T03:15:15.050Z,8.30
2022-12-29T03:18:06.145Z,5.60
2022-12-29T03:20:50.831Z,10.50
2022-12-29T03:23:22.404Z,7.10
2022-12-29T03:25:56.726Z,8.40
2022-12-29T03:28:31.452Z,6.40
2022-12-29T03:31:01.687Z,7.50
2022-12-29T03:33:32.370Z,3.40
2022-12-29T03:36:06.603Z,4.40
2022-12-29T03:38:51.590Z,9.10
2022-12-29T03:41:29.979Z,7.30
2022-12-29T03:43:58.590Z,7.80
2022-12-29T03:46:27.240Z,5.80
2022-12-29T03:48:55.779Z,5.20
2022-12-29T03:51:24.156Z,4.90
2022-12-29T03:53:52.379Z,4.70
2022-12-29T03:56:21.004Z,8.20
2022-12-29T03:58:52.182Z,0.50
2022-12-29T04:01:21.598Z,4.20
2022-12-29T04:03:51.168Z,5.40
2022-12-29T04:06:19.523Z,5.00
2022-12-29T04:08:47.978Z,2.00
2022-12-29T04:11:19.740Z,5.30
2022-12-29T04:13:49.048Z,3.60
2022-12-29T04:16:18.699Z,9.80
2022-12-29T04:18:47.250Z,2.40
2022-12-29T04:21:15.819Z,8.40
2022-12-29T04:23:44.272Z,4.30
2022-12-29T04:26:13.400Z,4.30
2022-12-29T04:28:42.882Z,4.00
2022-12-29T04:31:11.720Z,3.50
2022-12-29T04:33:39.992Z,7.60
2022-12-29T04:36:08.203Z,6.80
2022-12-29T04:38:36.645Z,8.80
2022-12-29T04:41:05.347Z,4.60
2022-12-29T04:43:33.553Z,5.30
2022-12-29T04:46:02.940Z,4.10
2022-12-29T04:48:31.998Z,3.80
2022-12-29T04:51:00.266Z,6.40
2022-12-29T04:53:28.542Z,5.10
2022-12-29T04:55:57.184Z,8.30
2022-12-29T04:58:26.531Z,3.90
2022-12-29T05:00:54.729Z,7.00
2022-12-29T05:03:23.281Z,5.60
2022-12-29T05:05:54.999Z,3.90
2022-12-29T05:08:28.090Z,4.90
2022-12-29T05:10:56.864Z,4.00
2022-12-29T05:13:25.166Z,1.80
2022-12-29T05:15:54.534Z,4.60
2022-12-29T05:18:22.875Z,5.20
2022-12-29T05:20:51.914Z,6.30
2022-12-29T05:23:20.246Z,4.00
2022-12-29T05:25:48.591Z,8.00
2022-12-29T05:28:17.042Z,4.20
2022-12-29T05:30:50.700Z,3.80
2022-12-29T05:33:20.896Z,1.70
2022-12-29T05:35:49.242Z,3.20
2022-12-29T05:38:17.672Z,3.90
2022-12-29T05:40:47.787Z,2.10
2022-12-29T05:43:16.260Z,3.30
2022-12-29T05:45:44.669Z,3.60
2022-12-29T05:48:13.619Z,2.40
2022-12-29T05:50:42.129Z,4.90
2022-12-29T05:53:10.469Z,4.10
2022-12-29T05:55:43.461Z,1.80
2022-12-29T05:58:16.533Z,6.10
2022-12-29T06:00:46.117Z,4.50
2022-12-29T06:03:14.481Z,8.10
2022-12-29T06:05:42.886Z,1.30
2022-12-29T06:08:11.407Z,1.90
2022-12-29T06:10:39.617Z,3.00
2022-12-29T06:13:07.861Z,1.80
2022-12-29T06:15:37.618Z,4.40
2022-12-29T06:18:05.842Z,4.20
2022-12-29T06:20:34.149Z,4.80
2022-12-29T06:23:02.371Z,1.60
2022-12-29T06:25:30.698Z,5.40
2022-12-29T06:27:59.388Z,2.60
2022-12-29T06:30:27.850Z,2.70
2022-12-29T06:32:56.230Z,6.50
2022-12-29T06:35:24.892Z,3.00
2022-12-29T06:37:53.228Z,2.60
2022-12-29T06:40:21.728Z,1.60
2022-12-29T06:42:50.044Z,3.90
2022-12-29T06:45:19.269Z,5.50
2022-12-29T06:47:47.875Z,3.00
2022-12-29T06:50:16.976Z,2.00
2022-12-29T06:52:47.172Z,8.80
2022-12-29T06:55:15.857Z,1.60
2022-12-29T06:57:44.123Z,9.80
2022-12-29T07:00:15.913Z,4.80
2022-12-29T07:02:47.923Z,6.60
2022-12-29T07:05:16.771Z,4.20
2022-12-29T07:07:45.468Z,3.00
2022-12-29T07:10:13.894Z,3.70
2022-12-29T07:12:42.697Z,2.90
2022-12-29T07:15:11.468Z,3.60
2022-12-29T07:17:39.780Z,4.30
2022-12-29T07:20:11.145Z,2.20
2022-12-29T07:22:39.410Z,3.80
2022-12-29T07:25:08.022Z,5.00
2022-12-29T07:27:36.595Z,7.20
2022-12-29T07:30:05.345Z,3.80
2022-12-29T07:32:35.530Z,5.20
2022-12-29T07:35:04.673Z,3.30
2022-12-29T07:37:33.024Z,4.90
2022-12-29T07:40:02.510Z,6.60
2022-12-29T07:42:31.660Z,6.60
2022-12-29T07:44:59.960Z,5.00
2022-12-29T07:47:28.635Z,6.80
2022-12-29T07:49:56.954Z,6.80
2022-12-29T07:52:25.184Z,6.70
2022-12-29T07:54:53.336Z,6.50
2022-12-29T07:57:25.036Z,12.60
2022-12-29T07:59:56.484Z,6.00
2022-12-29T08:02:25.924Z,6.70
2022-12-29T08:04:54.523Z,8.00
2022-12-29T08:07:23.014Z,6.10
2022-12-29T08:09:51.914Z,6.20
2022-12-29T08:12:20.326Z,7.50
2022-12-29T08:14:48.775Z,4.10
2022-12-29T08:17:17.691Z,9.40
2022-12-29T08:19:46.191Z,4.50
2022-12-29T08:22:15.971Z,6.40
2022-12-29T08:24:44.249Z,5.10
2022-12-29T08:27:19.964Z,4.30
2022-12-29T08:29:49.398Z,8.80
2022-12-29T08:32:18.333Z,12.80
2022-12-29T08:34:46.823Z,6.20
2022-12-29T08:37:15.109Z,7.80
2022-12-29T08:39:43.284Z,4.70
2022-12-29T08:42:11.650Z,4.60
2022-12-29T08:44:40.181Z,4.00
2022-12-29T08:47:10.289Z,4.30
2022-12-29T08:49:38.506Z,11.60
2022-12-29T08:52:06.799Z,6.50
2022-12-29T08:54:34.978Z,8.50
2022-12-29T08:57:03.235Z,6.10
2022-12-29T08:59:31.588Z,6.20
2022-12-29T09:02:00.018Z,6.00
2022-12-29T09:04:29.032Z,9.00
2022-12-29T09:06:57.854Z,8.70
2022-12-29T09:09:27.366Z,3.90
2022-12-29T09:11:56.159Z,5.70
2022-12-29T09:14:24.553Z,3.20
2022-12-29T09:16:53.422Z,5.60
2022-12-29T09:19:21.569Z,6.60
2022-12-29T09:21:50.665Z,4.50
2022-12-29T09:24:19.216Z,13.10
2022-12-29T09:26:47.494Z,6.40
2022-12-29T09:29:15.871Z,8.80
2022-12-29T09:31:44.111Z,9.90
2022-12-29T09:34:12.397Z,9.00
2022-12-29T09:36:41.242Z,8.40
2022-12-29T09:39:10.211Z,8.40
2022-12-29T09:41:53.828Z,12.80
2022-12-29T09:44:44.291Z,7.20
2022-12-29T09:47:16.016Z,12.20
2022-12-29T09:50:05.502Z,14.80
2022-12-29T09:52:38.651Z,11.50
2022-12-29T09:55:13.743Z,11.90
2022-12-29T09:58:01.284Z,11.40
2022-12-29T10:00:38.981Z,10.20
2022-12-29T10:03:17.533Z,8.60
2022-12-29T10:06:00.213Z,12.60
2022-12-29T10:08:39.292Z,21.10
2022-12-29T10:11:17.208Z,9.30
2022-12-29T10:14:03.261Z,10.20
2022-12-29T10:17:02.973Z,11.40
2022-12-29T10:19:52.933Z,10.20
2022-12-29T10:22:47.339Z,16.40
2022-12-29T10:25:32.873Z,6.80
2022-12-29T10:28:07.544Z,9.30
2022-12-29T10:30:37.354Z,8.90
2022-12-29T10:33:09.072Z,12.80
2022-12-29T10:35:42.190Z,13.90
2022-12-29T10:38:54.614Z,9.50
2022-12-29T10:41:30.041Z,9.60
2022-12-29T10:43:58.897Z,8.90
2022-12-29T10:46:35.340Z,9.10
2022-12-29T10:49:21.522Z,9.60
2022-12-29T10:51:52.611Z,10.40
2022-12-29T10:54:38.890Z,6.20
2022-12-29T10:57:15.800Z,5.80
2022-12-29T10:59:44.320Z,9.90
2022-12-29T11:02:12.862Z,10.10
2022-12-29T11:05:01.391Z,8.20
2022-12-29T11:07:31.801Z,4.90
2022-12-29T11:10:21.115Z,9.00
2022-12-29T11:13:12.838Z,6.00
2022-12-29T11:15:47.139Z,9.30
2022-12-29T11:18:33.417Z,6.50
2022-12-29T11:21:05.278Z,11.50
2022-12-29T11:23:39.711Z,4.10
2022-12-29T11:26:33.821Z,8.90
2022-12-29T11:29:15.441Z,8.20
2022-12-29T11:31:46.802Z,11.00
2022-12-29T11:34:20.975Z,13.70
2022-12-29T11:36:51.662Z,14.50
2022-12-29T11:39:31.876Z,13.90
2022-12-29T11:42:01.073Z,11.70
2022-12-29T11:44:37.079Z,9.30
2022-12-29T11:47:10.253Z,9.60
2022-12-29T11:49:40.584Z,5.00
2022-12-29T11:52:10.961Z,6.90
2022-12-29T11:54:40.382Z,3.90
2022-12-29T11:57:18.507Z,5.60
2022-12-29T11:59:54.006Z,15.60
2022-12-29T12:02:33.637Z,12.00
2022-12-29T12:05:24.662Z,10.90
2022-12-29T12:10:37.457Z,9.80
2022-12-29T12:13:33.821Z,13.30
2022-12-29T12:16:07.224Z,15.40
2022-12-29T12:18:41.876Z,16.00
2022-12-29T12:21:20.885Z,14.10
2022-12-29T12:24:24.107Z,13.70
2022-12-29T12:27:14.758Z,19.00
2022-12-29T12:30:04.273Z,39.00
2022-12-29T12:33:00.115Z,12.90
2022-12-29T12:35:55.255Z,15.00
2022-12-29T12:38:45.599Z,14.20
2022-12-29T12:41:38.893Z,10.50
2022-12-29T12:44:43.146Z,19.40
2022-12-29T12:47:42.616Z,16.90
2022-12-29T12:50:29.521Z,18.00
2022-12-29T12:53:54.156Z,15.50
2022-12-29T12:56:31.544Z,20.70
2022-12-29T12:59:32.542Z,21.40
2022-12-29T13:02:22.989Z,22.30
2022-12-29T13:04:58.999Z,14.20
2022-12-29T13:07:54.888Z,14.70
2022-12-29T13:10:32.359Z,9.40
2022-12-29T13:13:22.721Z,8.30
2022-12-29T13:16:02.512Z,8.90
2022-12-29T13:18:59.697Z,7.50
2022-12-29T13:22:01.888Z,7.80
2022-12-29T13:24:56.539Z,12.60
2022-12-29T13:27:37.367Z,5.90
2022-12-29T13:30:14.615Z,12.30
2022-12-29T13:32:58.081Z,10.20
2022-12-29T13:35:44.540Z,13.30
2022-12-29T13:38:20.142Z,9.20
2022-12-29T13:40:53.467Z,10.40
2022-12-29T13:43:23.862Z,12.10
2022-12-29T13:46:00.394Z,9.10
2022-12-29T13:49:00.228Z,12.50
2022-12-29T13:51:29.685Z,14.60
2022-12-29T13:54:19.279Z,12.40
2022-12-29T13:57:13.818Z,8.20
2022-12-29T14:00:13.540Z,7.00
2022-12-29T14:02:48.182Z,4.50
2022-12-29T14:05:19.560Z,4.60
2022-12-29T14:07:50.622Z,3.10
2022-12-29T14:10:30.969Z,5.30
2022-12-29T14:13:20.897Z,6.00
2022-12-29T14:16:00.281Z,5.20
2022-12-29T14:18:45.236Z,5.80
2022-12-29T14:21:16.947Z,10.00
2022-12-29T14:23:48.296Z,4.20
2022-12-29T14:26:36.826Z,4.30
2022-12-29T14:29:40.731Z,7.00
2022-12-29T14:32:27.260Z,3.50
2022-12-29T14:34:58.142Z,8.60
2022-12-29T14:37:32.980Z,4.60
2022-12-29T14:40:24.672Z,5.60
2022-12-29T14:42:56.386Z,9.10
2022-12-29T14:45:31.059Z,6.80
2022-12-29T14:47:59.748Z,4.80
2022-12-29T14:50:44.774Z,5.70
2022-12-29T14:53:43.444Z,8.40
2022-12-29T14:56:13.667Z,8.60
2022-12-29T14:58:52.849Z,5.30
2022-12-29T15:01:39.980Z,4.00
2022-12-29T15:04:36.727Z,13.70
2022-12-29T15:07:10.572Z,4.70
2022-12-29T15:09:42.690Z,5.00
2022-12-29T15:12:20.637Z,11.80
2022-12-29T15:14:56.137Z,9.50
2022-12-29T15:17:34.074Z,11.00
2022-12-29T15:20:35.796Z,9.50
2022-12-29T15:23:11.836Z,6.40
2022-12-29T15:25:55.654Z,10.50
2022-12-29T15:28:25.961Z,6.90
2022-12-29T15:31:04.214Z,8.50
2022-12-29T15:33:41.117Z,14.40
2022-12-29T15:36:19.715Z,12.20
2022-12-29T15:38:48.599Z,7.70
2022-12-29T15:41:31.266Z,9.40
2022-12-29T15:44:08.697Z,8.40
2022-12-29T15:49:16.695Z,7.40
2022-12-29T15:51:46.409Z,9.70
2022-12-29T15:54:21.289Z,5.70
2022-12-29T15:56:50.101Z,10.30
2022-12-29T15:59:27.745Z,7.90
2022-12-29T16:01:57.803Z,11.10
2022-12-29T16:04:30.591Z,10.40
2022-12-29T16:07:00.889Z,6.90
2022-12-29T16:09:37.841Z,10.20
2022-12-29T16:12:16.402Z,10.10
2022-12-29T16:14:48.732Z,11.30
2022-12-29T16:17:23.168Z,7.60
2022-12-29T16:19:53.279Z,8.70
2022-12-29T16:22:40.290Z,10.80
2022-12-29T16:25:20.992Z,10.30
2022-12-29T16:27:49.323Z,8.80
2022-12-29T16:30:24.267Z,14.20
2022-12-29T16:33:01.981Z,12.50
2022-12-29T16:35:50.421Z,5.50
2022-12-29T16:38:21.699Z,8.90
2022-12-29T16:41:03.791Z,14.60
2022-12-29T16:43:37.471Z,6.50
2022-12-29T16:46:30.477Z,11.10
2022-12-29T16:48:59.294Z,12.50
2022-12-29T16:51:37.715Z,12.20
2022-12-29T16:54:06.105Z,10.10
2022-12-29T16:56:36.816Z,13.20
2022-12-29T16:59:24.918Z,8.40
2022-12-29T17:01:53.305Z,13.90
2022-12-29T17:04:24.235Z,12.10
2022-12-29T17:06:53.240Z,8.80
2022-12-29T17:09:29.472Z,14.00
2022-12-29T17:12:10.483Z,14.10
2022-12-29T17:15:04.386Z,13.00
2022-12-29T17:17:44.050Z,10.40
2022-12-29T17:20:21.059Z,13.60
2022-12-29T17:22:50.626Z,15.80
2022-12-29T17:25:22.407Z,12.00
2022-12-29T17:28:20.395Z,14.40
2022-12-29T17:30:48.770Z,15.40
2022-12-29T17:33:20.790Z,12.90
2022-12-29T17:35:54.818Z,12.30
2022-12-29T17:38:29.999Z,13.90
2022-12-29T17:40:59.568Z,13.50
2022-12-29T17:43:34.785Z,10.20
2022-12-29T17:46:09.243Z,11.90
2022-12-29T17:48:38.162Z,13.70
2022-12-29T17:51:06.721Z,13.40
2022-12-29T17:53:35.146Z,15.50
2022-12-29T17:56:03.418Z,10.50
2022-12-29T17:58:33.454Z,11.00
2022-12-29T18:01:04.495Z,11.50
2022-12-29T18:03:35.779Z,7.30
2022-12-29T18:06:06.368Z,14.60
2022-12-29T18:08:39.422Z,13.20
2022-12-29T18:11:26.085Z,10.40
2022-12-29T18:13:55.296Z,8.40
2022-12-29T18:16:26.558Z,12.90
2022-12-29T18:18:55.205Z,12.30
2022-12-29T18:21:25.500Z,14.00
2022-12-29T18:23:54.655Z,11.70
2022-12-29T18:26:28.275Z,12.60
2022-12-29T18:28:58.737Z,12.50
2022-12-29T18:31:31.632Z,13.00
2022-12-29T18:34:03.495Z,13.90
2022-12-29T18:36:31.753Z,12.00
2022-12-29T18:39:00.462Z,12.50
2022-12-29T18:41:30.254Z,10.60
2022-12-29T18:44:00.922Z,9.00
2022-12-29T18:46:33.520Z,12.00
2022-12-29T18:49:01.753Z,11.00
2022-12-29T18:51:30.275Z,12.90
2022-12-29T18:54:01.249Z,18.30
2022-12-29T18:56:30.722Z,16.10
2022-12-29T19:01:31.212Z,12.80
2022-12-29T19:03:59.712Z,13.20
2022-12-29T19:06:28.754Z,16.90
2022-12-29T19:08:57.239Z,18.70
2022-12-29T19:11:27.241Z,10.80
2022-12-29T19:13:56.919Z,14.70
2022-12-29T19:16:25.514Z,17.10
2022-12-29T19:19:09.031Z,15.50
2022-12-29T19:21:39.244Z,15.00
2022-12-29T19:24:08.033Z,25.30
2022-12-29T19:26:39.146Z,23.80
2022-12-29T19:29:13.602Z,22.90
2022-12-29T19:31:42.139Z,17.70
2022-12-29T19:34:16.899Z,18.90
2022-12-29T19:36:46.213Z,24.10
2022-12-29T19:39:18.053Z,25.20
2022-12-29T19:41:46.630Z,22.50
2022-12-29T19:44:14.780Z,14.60
2022-12-29T19:46:44.223Z,17.20
2022-12-29T19:49:12.863Z,19.10
2022-12-29T19:51:42.606Z,16.60
2022-12-29T19:54:11.291Z,21.70
2022-12-29T19:56:39.990Z,17.10
2022-12-29T19:59:08.231Z,24.60
2022-12-29T20:01:36.871Z,23.30
2022-12-29T20:04:05.352Z,25.20
2022-12-29T20:06:33.794Z,20.20
2022-12-29T20:09:02.836Z,18.50
2022-12-29T20:11:31.782Z,13.00
2022-12-29T20:14:00.051Z,17.10
2022-12-29T20:16:28.470Z,20.70
2022-12-29T20:18:56.834Z,28.00
2022-12-29T20:21:26.042Z,24.50
2022-12-29T20:23:54.417Z,28.80
2022-12-29T20:26:28.970Z,23.30
2022-12-29T20:28:58.117Z,20.80
2022-12-29T20:31:30.363Z,21.70
2022-12-29T20:33:59.233Z,25.20
2022-12-29T20:36:31.494Z,25.80
2022-12-29T20:39:02.819Z,23.00
2022-12-29T20:41:31.160Z,23.30
2022-12-29T20:43:59.561Z,20.00
2022-12-29T20:46:33.934Z,22.40
2022-12-29T20:49:06.021Z,24.40
2022-12-29T20:52:04.034Z,23.00
2022-12-29T20:54:23.568Z,19.90
2022-12-29T20:56:52.171Z,15.20
2022-12-29T20:59:28.741Z,19.30
2022-12-29T21:01:58.385Z,21.30
2022-12-29T21:04:26.886Z,23.20
2022-12-29T21:06:55.550Z,17.70
2022-12-29T21:09:24.154Z,19.30
2022-12-29T21:11:52.387Z,20.60
2022-12-29T21:14:20.636Z,16.50
2022-12-29T21:16:48.936Z,22.50
2022-12-29T21:19:17.071Z,22.00
2022-12-29T21:21:45.260Z,19.60
2022-12-29T21:24:14.031Z,26.60
2022-12-29T21:26:42.214Z,22.20
2022-12-29T21:29:10.389Z,14.40
2022-12-29T21:31:38.712Z,16.70
2022-12-29T21:34:07.359Z,22.90
2022-12-29T21:36:35.973Z,15.30
2022-12-29T21:39:06.642Z,12.50
2022-12-29T21:41:35.726Z,18.60
2022-12-29T21:44:04.264Z,22.00
2022-12-29T21:46:34.514Z,20.70
2022-12-29T21:49:04.195Z,15.40
2022-12-29T21:51:33.011Z,15.60
2022-12-29T21:54:02.488Z,22.90
2022-12-29T21:56:31.023Z,20.40
2022-12-29T21:58:59.298Z,23.90
2022-12-29T22:01:29.948Z,18.30
2022-12-29T22:03:58.782Z,11.60
2022-12-29T22:06:27.197Z,14.90
2022-12-29T22:08:55.373Z,11.50
2022-12-29T22:11:23.697Z,11.70
2022-12-29T22:13:52.031Z,13.10
2022-12-29T22:16:20.371Z,16.70
2022-12-29T22:18:48.746Z,14.50
2022-12-29T22:21:17.763Z,11.90
2022-12-29T22:23:46.112Z,9.70
2022-12-29T22:26:15.645Z,9.60
2022-12-29T22:28:45.007Z,11.30
2022-12-29T22:31:28.427Z,13.20
2022-12-29T22:34:00.330Z,11.90
2022-12-29T22:36:30.058Z,9.60
2022-12-29T22:38:58.222Z,15.10
2022-12-29T22:41:26.468Z,10.90
2022-12-29T22:43:55.506Z,14.30
2022-12-29T22:46:26.334Z,12.80
2022-12-29T22:48:57.649Z,11.30
2022-12-29T22:51:26.961Z,12.60
2022-12-29T22:53:55.412Z,8.80
2022-12-29T22:56:23.978Z,16.40
2022-12-29T22:58:52.182Z,12.50
2022-12-29T23:01:20.571Z,7.80
2022-12-29T23:03:49.296Z,11.30
2022-12-29T23:06:17.865Z,8.30
2022-12-29T23:08:46.038Z,6.70
2022-12-29T23:11:15.006Z,15.70
2022-12-29T23:13:43.193Z,12.40
2022-12-29T23:16:11.553Z,9.10
2022-12-29T23:18:39.993Z,19.50
2022-12-29T23:21:08.608Z,10.10
2022-12-29T23:23:38.769Z,11.40
2022-12-29T23:26:10.760Z,12.50
2022-12-29T23:28:38.972Z,5.20
2022-12-29T23:31:11.213Z,9.80
2022-12-29T23:33:39.586Z,12.20
2022-12-29T23:36:08.569Z,8.40
2022-12-29T23:38:36.819Z,14.20
2022-12-29T23:41:05.421Z,14.70
2022-12-29T23:43:33.931Z,15.40
2022-12-29T23:46:10.308Z,11.20
2022-12-29T23:48:38.560Z,10.00
2022-12-29T23:51:07.860Z,13.20
2022-12-29T23:53:39.454Z,13.90
2022-12-29T23:56:10.014Z,16.60
2022-12-29T23:58:39.346Z,13.50
